createdAt,value
2023-05-01T00:01:06.356Z,37.93
2023-05-01T00:03:34.218Z,37.61
2023-05-01T00:06:04.332Z,38.01
2023-05-01T00:08:32.447Z,37.61
2023-05-01T00:11:09.942Z,37.86
2023-05-01T00:13:38.164Z,37.63
2023-05-01T00:16:12.634Z,37.64
2023-05-01T00:18:39.903Z,37.71
2023-05-01T00:21:09.670Z,37.97
2023-05-01T00:23:36.934Z,37.94
2023-05-01T00:26:10.995Z,37.83
2023-05-01T00:28:40.670Z,37.75
2023-05-01T00:31:08.122Z,37.89
2023-05-01T00:33:36.174Z,37.75
2023-05-01T00:36:06.178Z,37.60
2023-05-01T00:38:34.114Z,37.60
2023-05-01T00:41:01.381Z,37.46
2023-05-01T00:43:31.252Z,37.36
2023-05-01T00:45:58.698Z,37.34
2023-05-01T00:48:26.278Z,37.54
2023-05-01T00:50:58.352Z,37.38
2023-05-01T00:53:26.403Z,37.40
2023-05-01T00:55:56.615Z,37.17
2023-05-01T00:58:23.890Z,37.45
2023-05-01T01:00:58.833Z,37.22
2023-05-01T01:03:29.002Z,37.26
2023-05-01T01:06:05.512Z,37.11
2023-05-01T01:08:43.455Z,36.80
2023-05-01T01:11:21.918Z,36.85
2023-05-01T01:14:00.148Z,36.87
2023-05-01T01:16:41.782Z,37.02
2023-05-01T01:19:30.675Z,36.89
2023-05-01T01:22:09.896Z,37.03
2023-05-01T01:25:12.832Z,36.88
2023-05-01T01:28:19.080Z,36.67
2023-05-01T01:30:53.004Z,36.71
2023-05-01T01:33:33.138Z,36.46
2023-05-01T01:36:10.803Z,36.55
2023-05-01T01:38:47.095Z,36.63
2023-05-01T01:41:30.348Z,36.78
2023-05-01T01:44:03.137Z,36.61
2023-05-01T01:46:35.763Z,36.67
2023-05-01T01:49:09.263Z,36.66
2023-05-01T01:51:40.712Z,36.36
2023-05-01T01:54:13.703Z,36.75
2023-05-01T01:56:46.237Z,36.50
2023-05-01T01:59:15.645Z,36.18
2023-05-01T02:01:46.774Z,36.62
2023-05-01T02:04:16.260Z,36.37
2023-05-01T02:06:45.674Z,36.31
2023-05-01T02:09:16.554Z,36.17
2023-05-01T02:11:44.877Z,36.28
2023-05-01T02:14:16.321Z,36.03
2023-05-01T02:16:53.427Z,36.39
2023-05-01T02:19:24.006Z,36.20
2023-05-01T02:21:56.007Z,36.04
2023-05-01T02:24:25.508Z,36.05
2023-05-01T02:27:03.760Z,35.98
2023-05-01T02:29:35.910Z,36.02
2023-05-01T02:32:05.848Z,35.90
2023-05-01T02:34:39.043Z,35.92
2023-05-01T02:37:11.832Z,35.87
2023-05-01T02:39:44.348Z,35.83
2023-05-01T02:42:16.106Z,36.14
2023-05-01T02:44:48.806Z,35.98
2023-05-01T02:47:20.316Z,36.17
2023-05-01T02:49:49.071Z,36.18
2023-05-01T02:52:19.912Z,35.71
2023-05-01T02:54:51.325Z,36.18
2023-05-01T02:57:23.809Z,35.92
2023-05-01T02:59:51.361Z,36.10
2023-05-01T03:02:20.384Z,35.87
2023-05-01T03:04:47.785Z,36.11
2023-05-01T03:07:17.618Z,35.86
2023-05-01T03:09:44.863Z,35.57
2023-05-01T03:12:15.107Z,36.00
2023-05-01T03:14:47.248Z,35.69
2023-05-01T03:17:14.495Z,35.70
2023-05-01T03:19:44.341Z,35.80
2023-05-01T03:22:14.517Z,35.88
2023-05-01T03:24:47.700Z,35.49
2023-05-01T03:27:17.690Z,35.87
2023-05-01T03:29:47.114Z,35.72
2023-05-01T03:32:16.630Z,35.72
2023-05-01T03:34:45.906Z,35.73
2023-05-01T03:37:20.786Z,35.61
2023-05-01T03:39:54.263Z,35.38
2023-05-01T03:42:46.049Z,35.48
2023-05-01T03:45:20.217Z,35.47
2023-05-01T03:47:54.507Z,35.41
2023-05-01T03:50:24.909Z,35.13
2023-05-01T03:52:55.194Z,35.15
2023-05-01T03:55:22.663Z,35.08
2023-05-01T03:57:56.708Z,35.28
2023-05-01T04:00:30.005Z,35.18
2023-05-01T04:02:57.658Z,35.43
2023-05-01T04:05:29.637Z,34.91
2023-05-01T04:08:01.564Z,35.29
2023-05-01T04:10:31.288Z,35.09
2023-05-01T04:13:03.237Z,35.38
2023-05-01T04:15:30.653Z,35.31
2023-05-01T04:17:58.354Z,35.43
2023-05-01T04:20:28.340Z,35.09
2023-05-01T04:22:55.636Z,35.05
2023-05-01T04:25:28.007Z,35.12
2023-05-01T04:28:00.901Z,34.80
2023-05-01T04:30:31.228Z,34.70
2023-05-01T04:32:58.788Z,35.05
2023-05-01T04:35:26.185Z,34.97
2023-05-01T04:37:59.210Z,34.88
2023-05-01T04:40:28.778Z,34.94
2023-05-01T04:42:56.340Z,34.73
2023-05-01T04:45:23.729Z,34.66
2023-05-01T04:47:53.700Z,34.45
2023-05-01T04:50:21.166Z,34.17
2023-05-01T04:52:51.580Z,34.60
2023-05-01T04:55:19.052Z,34.32
2023-05-01T04:58:06.773Z,34.21
2023-05-01T05:00:38.603Z,34.48
2023-05-01T05:03:08.615Z,34.31
2023-05-01T05:05:44.271Z,34.10
2023-05-01T05:08:14.342Z,34.36
2023-05-01T05:10:47.270Z,34.52
2023-05-01T05:13:23.675Z,34.27
2023-05-01T05:16:01.715Z,34.38
2023-05-01T05:18:29.547Z,34.41
2023-05-01T05:20:57.586Z,34.32
2023-05-01T05:23:25.753Z,34.18
2023-05-01T05:25:55.501Z,34.09
2023-05-01T05:28:28.080Z,34.40
2023-05-01T05:30:56.407Z,34.22
2023-05-01T05:33:25.303Z,34.00
2023-05-01T05:35:53.004Z,34.16
2023-05-01T05:38:24.337Z,34.34
2023-05-01T05:41:02.170Z,33.99
2023-05-01T05:43:33.410Z,34.25
2023-05-01T05:46:01.123Z,34.17
2023-05-01T05:48:36.998Z,34.16
2023-05-01T05:51:09.680Z,34.18
2023-05-01T05:53:39.321Z,33.90
2023-05-01T05:56:12.476Z,33.89
2023-05-01T05:58:45.489Z,33.72
2023-05-01T06:01:15.253Z,34.05
2023-05-01T06:03:43.650Z,33.71
2023-05-01T06:06:13.930Z,34.00
2023-05-01T06:08:41.266Z,33.81
2023-05-01T06:11:14.417Z,33.97
2023-05-01T06:13:43.968Z,33.85
2023-05-01T06:16:15.297Z,33.84
2023-05-01T06:18:44.520Z,33.65
2023-05-01T06:21:13.067Z,33.91
2023-05-01T06:23:40.476Z,33.88
2023-05-01T06:26:26.412Z,34.06
2023-05-01T06:28:54.751Z,33.84
2023-05-01T06:31:22.076Z,34.04
2023-05-01T06:33:53.470Z,33.81
2023-05-01T06:36:28.509Z,33.96
2023-05-01T06:38:56.666Z,34.00
2023-05-01T06:41:25.799Z,33.72
2023-05-01T06:43:56.314Z,33.96
2023-05-01T06:46:23.593Z,33.90
2023-05-01T06:48:50.887Z,33.77
2023-05-01T06:51:18.210Z,33.58
2023-05-01T06:53:46.305Z,33.54
2023-05-01T06:56:16.405Z,33.78
2023-05-01T06:58:48.395Z,33.63
2023-05-01T07:01:18.815Z,34.21
2023-05-01T07:03:47.255Z,33.71
2023-05-01T07:06:17.718Z,33.70
2023-05-01T07:08:47.645Z,33.81
2023-05-01T07:11:19.912Z,33.98
2023-05-01T07:13:49.671Z,33.89
2023-05-01T07:16:17.032Z,33.77
2023-05-01T07:18:46.991Z,33.90
2023-05-01T07:21:15.032Z,33.69
2023-05-01T07:23:45.228Z,33.51
2023-05-01T07:26:12.520Z,33.68
2023-05-01T07:28:42.732Z,33.93
2023-05-01T07:31:10.544Z,33.67
2023-05-01T07:33:37.963Z,33.78
2023-05-01T07:36:08.250Z,33.79
2023-05-01T07:38:35.573Z,33.54
2023-05-01T07:41:05.908Z,33.58
2023-05-01T07:43:37.448Z,33.64
2023-05-01T07:46:06.328Z,33.41
2023-05-01T07:48:33.790Z,33.82
2023-05-01T07:51:04.564Z,33.85
2023-05-01T07:53:32.232Z,33.51
2023-05-01T07:56:09.958Z,33.46
2023-05-01T07:58:42.697Z,33.66
2023-05-01T08:01:12.356Z,33.63
2023-05-01T08:03:39.734Z,33.24
2023-05-01T08:06:09.558Z,33.52
2023-05-01T08:08:42.293Z,33.43
2023-05-01T08:11:15.031Z,33.49
2023-05-01T08:13:44.535Z,33.48
2023-05-01T08:16:14.841Z,33.39
2023-05-01T08:18:42.191Z,33.33
2023-05-01T08:21:12.938Z,33.38
2023-05-01T08:23:45.808Z,33.34
2023-05-01T08:26:16.442Z,33.32
2023-05-01T08:28:43.694Z,33.19
2023-05-01T08:31:13.959Z,33.21
2023-05-01T08:33:44.283Z,33.20
2023-05-01T08:36:12.295Z,33.34
2023-05-01T08:38:39.627Z,32.96
2023-05-01T08:41:09.513Z,33.05
2023-05-01T08:43:40.877Z,32.64
2023-05-01T08:46:13.698Z,32.86
2023-05-01T08:48:45.781Z,32.70
2023-05-01T08:51:21.206Z,32.61
2023-05-01T08:53:52.345Z,32.63
2023-05-01T08:56:23.533Z,32.60
2023-05-01T08:58:54.117Z,32.69
2023-05-01T09:01:25.049Z,32.74
2023-05-01T09:03:54.718Z,32.51
2023-05-01T09:06:29.485Z,32.67
2023-05-01T09:08:56.845Z,32.57
2023-05-01T09:11:30.795Z,32.61
2023-05-01T09:14:01.433Z,32.40
2023-05-01T09:16:32.064Z,32.22
2023-05-01T09:18:59.477Z,32.28
2023-05-01T09:21:32.377Z,32.19
2023-05-01T09:24:02.760Z,32.17
2023-05-01T09:26:31.097Z,32.18
2023-05-01T09:29:00.798Z,32.52
2023-05-01T09:31:29.719Z,32.28
2023-05-01T09:34:01.770Z,32.05
2023-05-01T09:36:31.093Z,32.23
2023-05-01T09:39:00.408Z,32.49
2023-05-01T09:41:28.351Z,32.30
2023-05-01T09:44:02.066Z,32.38
2023-05-01T09:46:41.705Z,32.45
2023-05-01T09:49:14.304Z,32.56
2023-05-01T09:51:43.816Z,32.19
2023-05-01T09:54:20.737Z,32.52
2023-05-01T09:56:49.745Z,32.42
2023-05-01T09:59:23.464Z,32.12
2023-05-01T10:01:51.304Z,32.27
2023-05-01T10:04:30.235Z,32.08
2023-05-01T10:07:14.983Z,32.25
2023-05-01T10:09:42.519Z,32.18
2023-05-01T10:12:10.065Z,31.96
2023-05-01T10:14:57.017Z,32.15
2023-05-01T10:17:27.049Z,31.87
2023-05-01T10:19:55.696Z,32.20
2023-05-01T10:22:26.678Z,31.86
2023-05-01T10:24:56.635Z,32.00
2023-05-01T10:27:25.940Z,32.11
2023-05-01T10:29:54.163Z,32.19
2023-05-01T10:32:32.388Z,31.79
2023-05-01T10:35:08.041Z,32.06
2023-05-01T10:37:50.774Z,31.81
2023-05-01T10:40:39.984Z,31.93
2023-05-01T10:43:30.028Z,31.85
2023-05-01T10:46:09.562Z,31.88
2023-05-01T10:48:40.199Z,31.87
2023-05-01T10:51:12.317Z,31.87
2023-05-01T10:53:46.999Z,31.71
2023-05-01T10:56:34.455Z,31.74
2023-05-01T10:59:04.806Z,31.71
2023-05-01T11:01:45.343Z,31.73
2023-05-01T11:04:27.403Z,31.49
2023-05-01T11:07:05.373Z,31.55
2023-05-01T11:09:37.350Z,31.50
2023-05-01T11:12:08.202Z,31.83
2023-05-01T11:14:54.239Z,31.60
2023-05-01T11:17:40.112Z,31.65
2023-05-01T11:20:14.677Z,31.47
2023-05-01T11:22:48.265Z,31.77
2023-05-01T11:25:21.990Z,31.54
2023-05-01T11:28:02.067Z,31.39
2023-05-01T11:30:42.376Z,31.55
2023-05-01T11:33:16.917Z,31.60
2023-05-01T11:35:44.700Z,31.83
2023-05-01T11:38:21.656Z,31.49
2023-05-01T11:40:55.535Z,31.38
2023-05-01T11:43:23.565Z,31.79
2023-05-01T11:46:02.126Z,31.66
2023-05-01T11:48:30.373Z,31.60
2023-05-01T11:50:57.753Z,31.52
2023-05-01T11:53:26.086Z,31.46
2023-05-01T11:55:56.834Z,31.15
2023-05-01T11:58:37.153Z,31.27
2023-05-01T12:01:07.852Z,31.59
2023-05-01T12:03:46.812Z,31.06
2023-05-01T12:06:15.066Z,31.11
2023-05-01T12:08:45.401Z,31.30
2023-05-01T12:11:16.104Z,31.21
2023-05-01T12:13:48.800Z,31.40
2023-05-01T12:16:18.881Z,31.42
2023-05-01T12:18:51.280Z,31.34
2023-05-01T12:21:21.691Z,31.00
2023-05-01T12:23:52.486Z,31.13
2023-05-01T12:26:25.361Z,31.50
2023-05-01T12:29:00.906Z,31.40
2023-05-01T12:31:29.607Z,31.33
2023-05-01T12:34:07.145Z,31.78
2023-05-01T12:36:35.989Z,31.83
2023-05-01T12:39:12.782Z,31.67
2023-05-01T12:41:45.540Z,31.79
2023-05-01T12:44:26.742Z,31.85
2023-05-01T12:47:03.404Z,31.80
2023-05-01T12:49:32.415Z,31.98
2023-05-01T12:52:03.617Z,31.91
2023-05-01T12:54:34.322Z,31.91
2023-05-01T12:57:20.601Z,31.76
2023-05-01T12:59:49.524Z,32.08
2023-05-01T13:02:20.407Z,31.91
2023-05-01T13:04:50.628Z,31.79
2023-05-01T13:07:19.321Z,31.76
2023-05-01T13:09:54.491Z,31.90
2023-05-01T13:12:33.327Z,31.66
2023-05-01T13:15:05.727Z,31.80
2023-05-01T13:17:33.488Z,31.86
2023-05-01T13:20:07.822Z,31.98
2023-05-01T13:22:41.235Z,31.97
2023-05-01T13:25:20.401Z,31.72
2023-05-01T13:27:51.204Z,31.76
2023-05-01T13:30:22.175Z,31.99
2023-05-01T13:32:49.898Z,31.73
2023-05-01T13:35:25.219Z,31.94
2023-05-01T13:37:57.017Z,31.62
2023-05-01T13:40:26.159Z,31.83
2023-05-01T13:42:56.679Z,32.00
2023-05-01T13:45:28.215Z,31.99
2023-05-01T13:47:58.021Z,32.00
2023-05-01T13:50:25.506Z,31.99
2023-05-01T13:52:53.068Z,32.08
2023-05-01T13:55:24.644Z,32.08
2023-05-01T13:57:51.935Z,31.61
2023-05-01T14:00:20.701Z,31.87
2023-05-01T14:02:53.357Z,31.81
2023-05-01T14:05:30.005Z,31.71
2023-05-01T14:07:58.881Z,32.04
2023-05-01T14:10:31.709Z,31.89
2023-05-01T14:13:05.078Z,32.24
2023-05-01T14:15:35.501Z,32.11
2023-05-01T14:18:07.106Z,32.23
2023-05-01T14:20:39.272Z,32.29
2023-05-01T14:23:06.673Z,32.35
2023-05-01T14:25:35.005Z,32.29
2023-05-01T14:28:08.191Z,32.21
2023-05-01T14:30:41.482Z,32.47
2023-05-01T14:33:11.436Z,32.16
2023-05-01T14:35:52.167Z,32.31
2023-05-01T14:38:25.677Z,32.65
2023-05-01T14:40:53.127Z,32.63
2023-05-01T14:43:24.067Z,32.38
2023-05-01T14:45:58.021Z,32.34
2023-05-01T14:48:30.321Z,32.46
2023-05-01T14:51:02.300Z,32.62
2023-05-01T14:53:36.334Z,32.43
2023-05-01T14:56:03.723Z,32.51
2023-05-01T14:58:31.338Z,32.27
2023-05-01T15:01:02.530Z,32.85
2023-05-01T15:03:41.021Z,32.49
2023-05-01T15:06:09.458Z,32.80
2023-05-01T15:08:43.382Z,32.42
2023-05-01T15:11:18.553Z,32.55
2023-05-01T15:13:46.218Z,32.66
2023-05-01T15:16:13.593Z,32.80
2023-05-01T15:18:43.275Z,32.65
2023-05-01T15:21:10.860Z,32.75
2023-05-01T15:23:38.230Z,32.38
2023-05-01T15:26:05.466Z,32.85
2023-05-01T15:28:33.758Z,32.95
2023-05-01T15:31:01.956Z,32.69
2023-05-01T15:33:31.875Z,32.37
2023-05-01T15:36:04.647Z,32.94
2023-05-01T15:38:34.412Z,32.80
2023-05-01T15:41:04.700Z,32.21
2023-05-01T15:43:34.995Z,32.72
2023-05-01T15:46:05.327Z,32.56
2023-05-01T15:48:37.535Z,32.94
2023-05-01T15:51:05.016Z,32.76
2023-05-01T15:53:41.439Z,32.62
2023-05-01T15:56:09.800Z,32.39
2023-05-01T15:58:39.945Z,32.42
2023-05-01T16:01:12.441Z,32.54
2023-05-01T16:03:44.630Z,32.55
2023-05-01T16:06:13.732Z,32.48
2023-05-01T16:08:44.011Z,32.57
2023-05-01T16:11:14.120Z,32.47
2023-05-01T16:13:45.170Z,32.60
2023-05-01T16:16:14.696Z,32.68
2023-05-01T16:18:46.986Z,32.56
2023-05-01T16:21:19.643Z,32.30
2023-05-01T16:23:47.596Z,32.49
2023-05-01T16:26:21.796Z,32.66
2023-05-01T16:28:49.398Z,32.59
2023-05-01T16:31:27.032Z,32.55
2023-05-01T16:33:56.821Z,32.70
2023-05-01T16:36:24.378Z,32.63
2023-05-01T16:38:52.774Z,32.42
2023-05-01T16:41:21.069Z,32.22
2023-05-01T16:43:48.377Z,32.86
2023-05-01T16:46:20.984Z,32.38
2023-05-01T16:48:51.668Z,32.59
2023-05-01T16:51:24.063Z,32.56
2023-05-01T16:53:54.246Z,32.69
2023-05-01T16:56:23.272Z,32.50
2023-05-01T16:58:56.388Z,32.65
2023-05-01T17:01:26.038Z,32.56
2023-05-01T17:03:53.443Z,32.51
2023-05-01T17:06:20.898Z,32.55
2023-05-01T17:08:48.180Z,32.76
2023-05-01T17:11:20.510Z,32.76
2023-05-01T17:13:47.958Z,33.09
2023-05-01T17:16:19.499Z,33.13
2023-05-01T17:18:49.113Z,32.91
2023-05-01T17:21:19.175Z,33.08
2023-05-01T17:23:48.744Z,33.31
2023-05-01T17:26:18.428Z,32.92
2023-05-01T17:28:50.553Z,32.94
2023-05-01T17:31:22.390Z,33.00
2023-05-01T17:33:50.022Z,33.35
2023-05-01T17:36:20.756Z,32.81
2023-05-01T17:38:50.330Z,32.90
2023-05-01T17:41:17.848Z,33.08
2023-05-01T17:43:51.412Z,33.03
2023-05-01T17:46:19.748Z,33.03
2023-05-01T17:48:50.004Z,33.30
2023-05-01T17:51:19.940Z,33.28
2023-05-01T17:53:50.106Z,33.46
2023-05-01T17:56:18.317Z,33.44
2023-05-01T17:58:48.561Z,33.47
2023-05-01T18:01:19.529Z,33.72
2023-05-01T18:03:49.054Z,33.34
2023-05-01T18:06:21.739Z,33.55
2023-05-01T18:08:50.109Z,33.63
2023-05-01T18:11:21.265Z,33.55
2023-05-01T18:13:51.199Z,33.43
2023-05-01T18:16:24.825Z,33.77
2023-05-01T18:18:53.093Z,33.64
2023-05-01T18:21:22.992Z,33.84
2023-05-01T18:23:52.467Z,33.62
2023-05-01T18:26:19.885Z,33.64
2023-05-01T18:28:50.603Z,33.90
2023-05-01T18:31:23.735Z,33.88
2023-05-01T18:33:51.091Z,33.94
2023-05-01T18:36:18.390Z,33.66
2023-05-01T18:38:49.512Z,33.82
2023-05-01T18:41:16.928Z,33.75
2023-05-01T18:43:47.046Z,34.01
2023-05-01T18:46:16.787Z,33.86
2023-05-01T18:48:44.201Z,33.91
2023-05-01T18:51:15.106Z,33.89
2023-05-01T18:53:42.732Z,34.24
2023-05-01T18:56:13.474Z,34.02
2023-05-01T18:58:40.944Z,34.16
2023-05-01T19:01:10.814Z,33.91
2023-05-01T19:03:41.253Z,34.21
2023-05-01T19:06:10.905Z,34.33
2023-05-01T19:08:40.524Z,34.29
2023-05-01T19:11:10.267Z,33.84
2023-05-01T19:13:40.587Z,34.29
2023-05-01T19:16:07.950Z,34.28
2023-05-01T19:18:38.965Z,34.32
2023-05-01T19:21:06.341Z,34.25
2023-05-01T19:23:35.699Z,34.32
2023-05-01T19:26:05.095Z,34.29
2023-05-01T19:28:32.384Z,34.23
2023-05-01T19:31:02.823Z,34.41
2023-05-01T19:33:30.322Z,34.70
2023-05-01T19:35:59.994Z,34.29
2023-05-01T19:38:29.558Z,34.55
2023-05-01T19:40:59.461Z,34.48
2023-05-01T19:43:29.924Z,34.32
2023-05-01T19:45:58.221Z,34.32
2023-05-01T19:48:25.676Z,34.36
2023-05-01T19:50:55.422Z,34.60
2023-05-01T19:53:27.856Z,34.72
2023-05-01T19:55:55.389Z,34.30
2023-05-01T19:58:22.749Z,34.65
2023-05-01T20:00:50.403Z,34.65
2023-05-01T20:03:20.913Z,34.40
2023-05-01T20:05:48.203Z,34.38
2023-05-01T20:08:20.439Z,34.62
2023-05-01T20:10:47.875Z,34.73
2023-05-01T20:13:15.452Z,34.58
2023-05-01T20:15:48.288Z,34.82
2023-05-01T20:18:19.694Z,34.74
2023-05-01T20:20:49.366Z,34.70
2023-05-01T20:23:19.316Z,34.72
2023-05-01T20:25:47.724Z,34.60
2023-05-01T20:28:21.254Z,34.73
2023-05-01T20:30:49.513Z,34.73
2023-05-01T20:33:17.755Z,34.75
2023-05-01T20:35:45.558Z,35.04
2023-05-01T20:38:15.631Z,35.02
2023-05-01T20:40:43.110Z,34.97
2023-05-01T20:43:11.252Z,34.72
2023-05-01T20:45:41.757Z,34.67
2023-05-01T20:48:09.277Z,35.05
2023-05-01T20:50:41.853Z,34.90
2023-05-01T20:53:12.538Z,34.98
2023-05-01T20:55:45.915Z,35.08
2023-05-01T20:58:13.203Z,35.15
2023-05-01T21:00:43.357Z,35.20
2023-05-01T21:03:15.338Z,35.02
2023-05-01T21:05:45.892Z,35.18
2023-05-01T21:08:13.357Z,35.26
2023-05-01T21:10:42.873Z,35.06
2023-05-01T21:13:15.194Z,35.10
2023-05-01T21:15:47.781Z,35.40
2023-05-01T21:18:17.591Z,35.29
2023-05-01T21:20:48.842Z,35.14
2023-05-01T21:23:17.415Z,35.18
2023-05-01T21:25:47.775Z,35.26
2023-05-01T21:28:15.889Z,35.35
2023-05-01T21:30:48.784Z,35.50
2023-05-01T21:33:19.830Z,35.53
2023-05-01T21:35:54.752Z,35.41
2023-05-01T21:38:25.054Z,35.32
2023-05-01T21:40:57.954Z,35.55
2023-05-01T21:43:28.772Z,35.66
2023-05-01T21:45:56.301Z,35.57
2023-05-01T21:48:28.828Z,35.41
2023-05-01T21:51:00.988Z,35.28
2023-05-01T21:53:34.019Z,35.41
2023-05-01T21:56:01.546Z,35.61
2023-05-01T21:58:31.630Z,35.43
2023-05-01T22:00:58.966Z,35.49
2023-05-01T22:03:29.268Z,35.50
2023-05-01T22:05:58.884Z,35.67
2023-05-01T22:08:28.680Z,35.78
2023-05-01T22:11:01.406Z,35.49
2023-05-01T22:13:33.367Z,35.50
2023-05-01T22:16:03.787Z,35.84
2023-05-01T22:18:31.478Z,35.74
2023-05-01T22:21:01.453Z,35.62
2023-05-01T22:23:28.746Z,35.82
2023-05-01T22:26:01.359Z,35.90
2023-05-01T22:28:29.087Z,35.71
2023-05-01T22:30:59.215Z,35.79
2023-05-01T22:33:28.858Z,35.67
2023-05-01T22:36:01.914Z,36.19
2023-05-01T22:38:29.208Z,35.93
2023-05-01T22:40:59.372Z,36.03
2023-05-01T22:43:29.189Z,36.15
2023-05-01T22:45:59.651Z,36.23
2023-05-01T22:48:28.095Z,36.05
2023-05-01T22:51:01.331Z,36.03
2023-05-01T22:53:31.249Z,36.22
2023-05-01T22:56:02.909Z,36.64
2023-05-01T22:58:30.130Z,36.35
2023-05-01T23:00:59.646Z,36.59
2023-05-01T23:03:29.725Z,36.41
2023-05-01T23:06:03.141Z,36.61
2023-05-01T23:08:36.610Z,36.53
2023-05-01T23:11:04.429Z,36.56
2023-05-01T23:13:32.319Z,36.69
2023-05-01T23:16:04.859Z,36.67
2023-05-01T23:18:36.486Z,36.81
2023-05-01T23:21:04.915Z,36.49
2023-05-01T23:23:34.956Z,36.52
2023-05-01T23:26:02.258Z,36.65
2023-05-01T23:28:39.638Z,36.81
2023-05-01T23:31:20.114Z,36.77
2023-05-01T23:33:49.882Z,36.86
2023-05-01T23:36:20.174Z,37.00
2023-05-01T23:38:50.844Z,37.03
2023-05-01T23:41:25.038Z,36.52
2023-05-01T23:43:55.144Z,36.58
2023-05-01T23:46:22.614Z,36.45
2023-05-01T23:48:50.146Z,36.81
2023-05-01T23:51:17.712Z,36.49
2023-05-01T23:53:45.283Z,36.80
2023-05-01T23:56:13.352Z,36.79
2023-05-01T23:58:43.769Z,36.95
